sensor_id;sensor_type;location;lat;lon;timestamp;P1;durP1;ratioP1;P2;durP2;ratioP2
62880;SDS011;48969;49.934;8.596;2023-05-21T00:01:44;21.25;;;18.83;;
62880;SDS011;48969;49.934;8.596;2023-05-21T00:04:09;21.42;;;18.60;;
62880;SDS011;48969;49.934;8.596;2023-05-21T00:06:35;21.48;;;19.23;;
62880;SDS011;48969;49.934;8.596;2023-05-21T00:09:02;21.58;;;19.17;;
62880;SDS011;48969;49.934;8.596;2023-05-21T00:11:27;21.52;;;18.33;;
62880;SDS011;48969;49.934;8.596;2023-05-21T00:13:52;20.55;;;18.50;;
62880;SDS011;48969;49.934;8.596;2023-05-21T00:16:20;20.73;;;18.60;;
62880;SDS011;48969;49.934;8.596;2023-05-21T00:18:45;20.92;;;18.73;;
62880;SDS011;48969;49.934;8.596;2023-05-21T00:21:13;20.73;;;18.50;;
62880;SDS011;48969;49.934;8.596;2023-05-21T00:23:41;22.20;;;19.17;;
62880;SDS011;48969;49.934;8.596;2023-05-21T00:26:06;22.17;;;19.65;;
62880;SDS011;48969;49.934;8.596;2023-05-21T00:28:31;22.30;;;19.52;;
62880;SDS011;48969;49.934;8.596;2023-05-21T00:30:57;20.58;;;18.33;;
62880;SDS011;48969;49.934;8.596;2023-05-21T00:33:22;20.17;;;18.10;;
62880;SDS011;48969;49.934;8.596;2023-05-21T00:35:50;21.10;;;18.92;;
62880;SDS011;48969;49.934;8.596;2023-05-21T00:38:15;20.85;;;18.75;;
62880;SDS011;48969;49.934;8.596;2023-05-21T00:40:42;20.08;;;18.08;;
62880;SDS011;48969;49.934;8.596;2023-05-21T00:43:07;20.98;;;18.77;;
62880;SDS011;48969;49.934;8.596;2023-05-21T00:45:34;21.80;;;19.20;;
62880;SDS011;48969;49.934;8.596;2023-05-21T00:48:00;20.88;;;18.67;;
62880;SDS011;48969;49.934;8.596;2023-05-21T00:50:26;21.17;;;18.58;;
62880;SDS011;48969;49.934;8.596;2023-05-21T00:52:51;21.30;;;18.90;;
62880;SDS011;48969;49.934;8.596;2023-05-21T00:55:17;20.90;;;18.27;;
62880;SDS011;48969;49.934;8.596;2023-05-21T00:57:42;21.45;;;19.23;;
62880;SDS011;48969;49.934;8.596;2023-05-21T01:00:08;21.27;;;19.08;;
62880;SDS011;48969;49.934;8.596;2023-05-21T01:02:34;21.63;;;19.33;;
62880;SDS011;48969;49.934;8.596;2023-05-21T01:05:01;20.80;;;18.58;;
62880;SDS011;48969;49.934;8.596;2023-05-21T01:07:28;20.35;;;18.20;;
62880;SDS011;48969;49.934;8.596;2023-05-21T01:09:53;22.15;;;18.58;;
62880;SDS011;48969;49.934;8.596;2023-05-21T01:12:18;20.42;;;18.30;;
62880;SDS011;48969;49.934;8.596;2023-05-21T01:14:44;20.38;;;18.38;;
62880;SDS011;48969;49.934;8.596;2023-05-21T01:17:09;20.02;;;17.92;;
62880;SDS011;48969;49.934;8.596;2023-05-21T01:19:36;20.70;;;18.50;;
62880;SDS011;48969;49.934;8.596;2023-05-21T01:22:03;20.88;;;18.65;;
62880;SDS011;48969;49.934;8.596;2023-05-21T01:24:28;20.80;;;18.60;;
62880;SDS011;48969;49.934;8.596;2023-05-21T01:26:54;22.40;;;19.15;;
62880;SDS011;48969;49.934;8.596;2023-05-21T01:29:19;21.05;;;17.38;;
62880;SDS011;48969;49.934;8.596;2023-05-21T01:34:10;22.00;;;19.52;;
62880;SDS011;48969;49.934;8.596;2023-05-21T01:36:37;21.98;;;18.23;;
62880;SDS011;48969;49.934;8.596;2023-05-21T01:39:19;21.27;;;18.48;;
62880;SDS011;48969;49.934;8.596;2023-05-21T01:41:47;20.92;;;18.25;;
62880;SDS011;48969;49.934;8.596;2023-05-21T01:44:14;22.65;;;19.15;;
62880;SDS011;48969;49.934;8.596;2023-05-21T01:46:42;20.30;;;18.20;;
62880;SDS011;48969;49.934;8.596;2023-05-21T01:49:07;21.15;;;18.85;;
62880;SDS011;48969;49.934;8.596;2023-05-21T01:51:32;21.88;;;19.52;;
62880;SDS011;48969;49.934;8.596;2023-05-21T01:54:00;21.17;;;18.95;;
62880;SDS011;48969;49.934;8.596;2023-05-21T01:56:25;22.85;;;18.98;;
62880;SDS011;48969;49.934;8.596;2023-05-21T01:58:52;21.55;;;18.48;;
62880;SDS011;48969;49.934;8.596;2023-05-21T02:01:17;23.25;;;18.60;;
62880;SDS011;48969;49.934;8.596;2023-05-21T02:03:43;22.13;;;19.10;;
62880;SDS011;48969;49.934;8.596;2023-05-21T02:06:08;23.38;;;19.45;;
62880;SDS011;48969;49.934;8.596;2023-05-21T02:08:33;20.65;;;18.55;;
62880;SDS011;48969;49.934;8.596;2023-05-21T02:10:58;21.05;;;18.60;;
62880;SDS011;48969;49.934;8.596;2023-05-21T02:13:24;22.27;;;19.00;;
62880;SDS011;48969;49.934;8.596;2023-05-21T02:15:49;20.58;;;18.38;;
62880;SDS011;48969;49.934;8.596;2023-05-21T02:18:15;21.55;;;19.30;;
62880;SDS011;48969;49.934;8.596;2023-05-21T02:20:41;22.42;;;18.63;;
62880;SDS011;48969;49.934;8.596;2023-05-21T02:23:06;22.63;;;20.23;;
62880;SDS011;48969;49.934;8.596;2023-05-21T02:25:31;21.17;;;18.97;;
62880;SDS011;48969;49.934;8.596;2023-05-21T02:27:56;20.73;;;18.50;;
62880;SDS011;48969;49.934;8.596;2023-05-21T02:30:21;20.77;;;18.58;;
62880;SDS011;48969;49.934;8.596;2023-05-21T02:32:47;20.90;;;18.80;;
62880;SDS011;48969;49.934;8.596;2023-05-21T02:35:12;21.45;;;19.15;;
62880;SDS011;48969;49.934;8.596;2023-05-21T02:37:38;20.10;;;17.92;;
62880;SDS011;48969;49.934;8.596;2023-05-21T02:40:04;21.02;;;18.92;;
62880;SDS011;48969;49.934;8.596;2023-05-21T02:42:30;22.00;;;19.70;;
62880;SDS011;48969;49.934;8.596;2023-05-21T02:44:55;21.95;;;19.65;;
62880;SDS011;48969;49.934;8.596;2023-05-21T02:47:20;22.33;;;19.65;;
62880;SDS011;48969;49.934;8.596;2023-05-21T02:49:48;21.35;;;19.05;;
62880;SDS011;48969;49.934;8.596;2023-05-21T02:52:13;20.98;;;18.75;;
62880;SDS011;48969;49.934;8.596;2023-05-21T02:54:38;22.08;;;19.77;;
62880;SDS011;48969;49.934;8.596;2023-05-21T02:57:03;20.40;;;18.40;;
62880;SDS011;48969;49.934;8.596;2023-05-21T02:59:29;22.38;;;19.58;;
62880;SDS011;48969;49.934;8.596;2023-05-21T03:01:54;21.65;;;19.38;;
62880;SDS011;48969;49.934;8.596;2023-05-21T03:04:19;22.38;;;20.08;;
62880;SDS011;48969;49.934;8.596;2023-05-21T03:06:50;22.80;;;20.33;;
62880;SDS011;48969;49.934;8.596;2023-05-21T03:09:22;21.65;;;19.40;;
62880;SDS011;48969;49.934;8.596;2023-05-21T03:11:48;22.27;;;19.95;;
62880;SDS011;48969;49.934;8.596;2023-05-21T03:14:13;20.75;;;18.65;;
62880;SDS011;48969;49.934;8.596;2023-05-21T03:16:38;21.87;;;19.57;;
62880;SDS011;48969;49.934;8.596;2023-05-21T03:19:06;22.88;;;20.48;;
62880;SDS011;48969;49.934;8.596;2023-05-21T03:21:31;22.25;;;19.98;;
62880;SDS011;48969;49.934;8.596;2023-05-21T03:23:57;22.45;;;20.15;;
62880;SDS011;48969;49.934;8.596;2023-05-21T03:26:25;21.48;;;19.15;;
62880;SDS011;48969;49.934;8.596;2023-05-21T03:28:54;23.17;;;19.75;;
62880;SDS011;48969;49.934;8.596;2023-05-21T03:31:19;28.02;;;20.50;;
62880;SDS011;48969;49.934;8.596;2023-05-21T03:33:45;22.08;;;19.67;;
62880;SDS011;48969;49.934;8.596;2023-05-21T03:36:10;21.42;;;18.73;;
62880;SDS011;48969;49.934;8.596;2023-05-21T03:38:37;23.08;;;20.42;;
62880;SDS011;48969;49.934;8.596;2023-05-21T03:41:02;21.88;;;19.58;;
62880;SDS011;48969;49.934;8.596;2023-05-21T03:43:28;21.88;;;19.48;;
62880;SDS011;48969;49.934;8.596;2023-05-21T03:45:53;21.58;;;19.08;;
62880;SDS011;48969;49.934;8.596;2023-05-21T03:48:18;21.67;;;19.45;;
62880;SDS011;48969;49.934;8.596;2023-05-21T03:50:43;20.92;;;18.73;;
62880;SDS011;48969;49.934;8.596;2023-05-21T03:53:09;20.90;;;18.70;;
62880;SDS011;48969;49.934;8.596;2023-05-21T03:55:34;20.98;;;18.70;;
62880;SDS011;48969;49.934;8.596;2023-05-21T03:58:00;21.52;;;19.25;;
62880;SDS011;48969;49.934;8.596;2023-05-21T04:00:25;21.00;;;18.65;;
62880;SDS011;48969;49.934;8.596;2023-05-21T04:02:50;22.52;;;18.98;;
62880;SDS011;48969;49.934;8.596;2023-05-21T04:05:15;21.42;;;19.33;;
62880;SDS011;48969;49.934;8.596;2023-05-21T04:07:40;22.13;;;19.80;;
62880;SDS011;48969;49.934;8.596;2023-05-21T04:10:06;22.05;;;19.60;;
62880;SDS011;48969;49.934;8.596;2023-05-21T04:12:32;20.88;;;18.75;;
62880;SDS011;48969;49.934;8.596;2023-05-21T04:14:57;21.10;;;18.83;;
62880;SDS011;48969;49.934;8.596;2023-05-21T04:17:22;21.70;;;19.33;;
62880;SDS011;48969;49.934;8.596;2023-05-21T04:19:50;21.45;;;19.15;;
62880;SDS011;48969;49.934;8.596;2023-05-21T04:22:16;22.33;;;19.00;;
62880;SDS011;48969;49.934;8.596;2023-05-21T04:24:41;21.92;;;19.63;;
62880;SDS011;48969;49.934;8.596;2023-05-21T04:27:06;22.20;;;19.77;;
62880;SDS011;48969;49.934;8.596;2023-05-21T04:29:33;21.73;;;19.52;;
62880;SDS011;48969;49.934;8.596;2023-05-21T04:31:59;21.33;;;18.98;;
62880;SDS011;48969;49.934;8.596;2023-05-21T04:34:24;24.27;;;18.83;;
62880;SDS011;48969;49.934;8.596;2023-05-21T04:36:49;22.52;;;20.13;;
62880;SDS011;48969;49.934;8.596;2023-05-21T04:39:15;21.77;;;19.23;;
62880;SDS011;48969;49.934;8.596;2023-05-21T04:41:41;21.70;;;19.17;;
62880;SDS011;48969;49.934;8.596;2023-05-21T04:44:06;22.10;;;19.80;;
62880;SDS011;48969;49.934;8.596;2023-05-21T04:46:32;21.85;;;19.40;;
62880;SDS011;48969;49.934;8.596;2023-05-21T04:48:58;22.73;;;20.20;;
62880;SDS011;48969;49.934;8.596;2023-05-21T04:51:27;22.13;;;19.85;;
62880;SDS011;48969;49.934;8.596;2023-05-21T04:53:52;22.67;;;20.35;;
62880;SDS011;48969;49.934;8.596;2023-05-21T04:56:18;21.73;;;19.42;;
62880;SDS011;48969;49.934;8.596;2023-05-21T04:58:43;21.15;;;18.88;;
62880;SDS011;48969;49.934;8.596;2023-05-21T05:01:09;21.58;;;19.48;;
62880;SDS011;48969;49.934;8.596;2023-05-21T05:03:34;22.52;;;19.27;;
62880;SDS011;48969;49.934;8.596;2023-05-21T05:06:00;21.20;;;18.98;;
62880;SDS011;48969;49.934;8.596;2023-05-21T05:08:28;22.48;;;20.00;;
62880;SDS011;48969;49.934;8.596;2023-05-21T05:10:53;21.50;;;19.20;;
62880;SDS011;48969;49.934;8.596;2023-05-21T05:13:18;20.87;;;18.60;;
62880;SDS011;48969;49.934;8.596;2023-05-21T05:15:43;21.08;;;18.88;;
62880;SDS011;48969;49.934;8.596;2023-05-21T05:18:08;21.75;;;19.27;;
62880;SDS011;48969;49.934;8.596;2023-05-21T05:20:34;25.80;;;20.92;;
62880;SDS011;48969;49.934;8.596;2023-05-21T05:22:59;22.43;;;20.03;;
62880;SDS011;48969;49.934;8.596;2023-05-21T05:25:25;21.05;;;18.70;;
62880;SDS011;48969;49.934;8.596;2023-05-21T05:27:50;22.38;;;19.60;;
62880;SDS011;48969;49.934;8.596;2023-05-21T05:30:15;22.52;;;20.33;;
62880;SDS011;48969;49.934;8.596;2023-05-21T05:32:40;22.63;;;19.90;;
62880;SDS011;48969;49.934;8.596;2023-05-21T05:35:06;23.02;;;20.40;;
62880;SDS011;48969;49.934;8.596;2023-05-21T05:37:31;21.65;;;19.17;;
62880;SDS011;48969;49.934;8.596;2023-05-21T05:39:57;21.10;;;18.75;;
62880;SDS011;48969;49.934;8.596;2023-05-21T05:42:22;22.02;;;19.73;;
62880;SDS011;48969;49.934;8.596;2023-05-21T05:44:47;22.33;;;19.60;;
62880;SDS011;48969;49.934;8.596;2023-05-21T05:47:12;20.80;;;18.42;;
62880;SDS011;48969;49.934;8.596;2023-05-21T05:49:38;21.40;;;19.20;;
62880;SDS011;48969;49.934;8.596;2023-05-21T05:52:03;21.80;;;19.00;;
62880;SDS011;48969;49.934;8.596;2023-05-21T05:54:28;22.58;;;20.30;;
62880;SDS011;48969;49.934;8.596;2023-05-21T05:56:53;21.80;;;19.50;;
62880;SDS011;48969;49.934;8.596;2023-05-21T05:59:18;21.98;;;19.65;;
62880;SDS011;48969;49.934;8.596;2023-05-21T06:01:44;26.25;;;19.95;;
62880;SDS011;48969;49.934;8.596;2023-05-21T06:04:09;27.88;;;20.27;;
62880;SDS011;48969;49.934;8.596;2023-05-21T06:06:34;21.40;;;19.13;;
62880;SDS011;48969;49.934;8.596;2023-05-21T06:09:00;21.75;;;19.45;;
62880;SDS011;48969;49.934;8.596;2023-05-21T06:11:25;22.13;;;19.25;;
62880;SDS011;48969;49.934;8.596;2023-05-21T06:13:51;21.57;;;18.87;;
62880;SDS011;48969;49.934;8.596;2023-05-21T06:16:16;21.27;;;19.10;;
62880;SDS011;48969;49.934;8.596;2023-05-21T06:18:41;20.90;;;18.73;;
62880;SDS011;48969;49.934;8.596;2023-05-21T06:21:06;19.97;;;17.93;;
62880;SDS011;48969;49.934;8.596;2023-05-21T06:23:32;21.25;;;18.90;;
62880;SDS011;48969;49.934;8.596;2023-05-21T06:25:59;18.92;;;16.90;;
62880;SDS011;48969;49.934;8.596;2023-05-21T06:28:24;20.85;;;18.17;;
62880;SDS011;48969;49.934;8.596;2023-05-21T06:30:49;19.98;;;18.08;;
62880;SDS011;48969;49.934;8.596;2023-05-21T06:33:14;22.00;;;18.23;;
62880;SDS011;48969;49.934;8.596;2023-05-21T06:35:40;20.58;;;18.58;;
62880;SDS011;48969;49.934;8.596;2023-05-21T06:38:05;20.05;;;17.88;;
62880;SDS011;48969;49.934;8.596;2023-05-21T06:40:30;18.83;;;16.92;;
62880;SDS011;48969;49.934;8.596;2023-05-21T06:42:55;20.85;;;18.75;;
62880;SDS011;48969;49.934;8.596;2023-05-21T06:45:21;20.75;;;18.42;;
62880;SDS011;48969;49.934;8.596;2023-05-21T06:47:47;19.17;;;17.08;;
62880;SDS011;48969;49.934;8.596;2023-05-21T06:50:15;19.70;;;17.75;;
62880;SDS011;48969;49.934;8.596;2023-05-21T06:52:40;24.73;;;18.48;;
62880;SDS011;48969;49.934;8.596;2023-05-21T06:55:05;21.87;;;17.03;;
62880;SDS011;48969;49.934;8.596;2023-05-21T06:57:31;24.15;;;18.20;;
62880;SDS011;48969;49.934;8.596;2023-05-21T06:59:56;19.33;;;16.98;;
62880;SDS011;48969;49.934;8.596;2023-05-21T07:02:21;18.45;;;16.33;;
62880;SDS011;48969;49.934;8.596;2023-05-21T07:04:46;20.38;;;16.98;;
62880;SDS011;48969;49.934;8.596;2023-05-21T07:07:12;18.98;;;17.08;;
62880;SDS011;48969;49.934;8.596;2023-05-21T07:09:37;19.52;;;17.65;;
62880;SDS011;48969;49.934;8.596;2023-05-21T07:12:02;19.83;;;17.57;;
62880;SDS011;48969;49.934;8.596;2023-05-21T07:14:27;19.45;;;17.27;;
62880;SDS011;48969;49.934;8.596;2023-05-21T07:16:52;19.92;;;17.83;;
62880;SDS011;48969;49.934;8.596;2023-05-21T07:19:18;19.00;;;17.20;;
62880;SDS011;48969;49.934;8.596;2023-05-21T07:21:43;20.17;;;17.08;;
62880;SDS011;48969;49.934;8.596;2023-05-21T07:24:08;21.58;;;18.75;;
62880;SDS011;48969;49.934;8.596;2023-05-21T07:26:33;17.77;;;15.95;;
62880;SDS011;48969;49.934;8.596;2023-05-21T07:28:58;18.53;;;16.73;;
62880;SDS011;48969;49.934;8.596;2023-05-21T07:31:24;19.15;;;17.25;;
62880;SDS011;48969;49.934;8.596;2023-05-21T07:33:49;19.40;;;17.20;;
62880;SDS011;48969;49.934;8.596;2023-05-21T07:36:15;18.67;;;16.83;;
62880;SDS011;48969;49.934;8.596;2023-05-21T07:38:40;17.90;;;16.10;;
62880;SDS011;48969;49.934;8.596;2023-05-21T07:41:05;18.83;;;16.58;;
62880;SDS011;48969;49.934;8.596;2023-05-21T07:43:30;19.02;;;17.20;;
62880;SDS011;48969;49.934;8.596;2023-05-21T07:45:55;18.43;;;16.63;;
62880;SDS011;48969;49.934;8.596;2023-05-21T07:48:21;17.33;;;15.63;;
62880;SDS011;48969;49.934;8.596;2023-05-21T07:50:46;18.40;;;16.50;;
62880;SDS011;48969;49.934;8.596;2023-05-21T07:53:13;17.75;;;15.95;;
62880;SDS011;48969;49.934;8.596;2023-05-21T07:55:38;17.10;;;15.30;;
62880;SDS011;48969;49.934;8.596;2023-05-21T07:58:11;16.25;;;14.73;;
62880;SDS011;48969;49.934;8.596;2023-05-21T08:00:43;18.10;;;16.30;;
62880;SDS011;48969;49.934;8.596;2023-05-21T08:03:12;17.92;;;16.13;;
62880;SDS011;48969;49.934;8.596;2023-05-21T08:05:38;17.55;;;15.85;;
62880;SDS011;48969;49.934;8.596;2023-05-21T08:08:03;17.02;;;15.43;;
62880;SDS011;48969;49.934;8.596;2023-05-21T08:10:29;17.67;;;15.90;;
62880;SDS011;48969;49.934;8.596;2023-05-21T08:12:55;17.17;;;15.38;;
62880;SDS011;48969;49.934;8.596;2023-05-21T08:15:20;17.27;;;15.48;;
62880;SDS011;48969;49.934;8.596;2023-05-21T08:17:45;17.73;;;15.63;;
62880;SDS011;48969;49.934;8.596;2023-05-21T08:20:10;17.40;;;15.60;;
62880;SDS011;48969;49.934;8.596;2023-05-21T08:22:37;17.85;;;16.02;;
62880;SDS011;48969;49.934;8.596;2023-05-21T08:25:02;17.00;;;15.23;;
62880;SDS011;48969;49.934;8.596;2023-05-21T08:27:27;16.75;;;14.98;;
62880;SDS011;48969;49.934;8.596;2023-05-21T08:29:53;18.10;;;16.33;;
62880;SDS011;48969;49.934;8.596;2023-05-21T08:32:18;17.23;;;15.53;;
62880;SDS011;48969;49.934;8.596;2023-05-21T08:34:43;16.95;;;15.25;;
62880;SDS011;48969;49.934;8.596;2023-05-21T08:37:08;17.75;;;15.90;;
62880;SDS011;48969;49.934;8.596;2023-05-21T08:39:33;18.07;;;15.37;;
62880;SDS011;48969;49.934;8.596;2023-05-21T08:42:03;16.97;;;15.27;;
62880;SDS011;48969;49.934;8.596;2023-05-21T08:44:28;16.23;;;14.63;;
62880;SDS011;48969;49.934;8.596;2023-05-21T08:46:57;16.58;;;14.98;;
62880;SDS011;48969;49.934;8.596;2023-05-21T08:49:23;16.73;;;15.10;;
62880;SDS011;48969;49.934;8.596;2023-05-21T08:51:50;17.10;;;15.05;;
62880;SDS011;48969;49.934;8.596;2023-05-21T08:54:16;17.20;;;15.40;;
62880;SDS011;48969;49.934;8.596;2023-05-21T08:56:41;16.77;;;15.07;;
62880;SDS011;48969;49.934;8.596;2023-05-21T08:59:10;16.17;;;14.48;;
62880;SDS011;48969;49.934;8.596;2023-05-21T09:01:36;17.17;;;15.43;;
62880;SDS011;48969;49.934;8.596;2023-05-21T09:04:02;17.15;;;15.38;;
62880;SDS011;48969;49.934;8.596;2023-05-21T09:06:27;15.98;;;14.48;;
62880;SDS011;48969;49.934;8.596;2023-05-21T09:08:56;18.00;;;16.10;;
62880;SDS011;48969;49.934;8.596;2023-05-21T09:11:23;18.20;;;15.57;;
62880;SDS011;48969;49.934;8.596;2023-05-21T09:13:48;16.73;;;15.00;;
62880;SDS011;48969;49.934;8.596;2023-05-21T09:16:13;16.90;;;15.30;;
62880;SDS011;48969;49.934;8.596;2023-05-21T09:18:38;15.93;;;14.43;;
62880;SDS011;48969;49.934;8.596;2023-05-21T09:21:21;15.32;;;13.82;;
62880;SDS011;48969;49.934;8.596;2023-05-21T09:23:47;15.90;;;14.25;;
62880;SDS011;48969;49.934;8.596;2023-05-21T09:26:16;15.90;;;14.35;;
62880;SDS011;48969;49.934;8.596;2023-05-21T09:28:41;16.77;;;15.00;;
62880;SDS011;48969;49.934;8.596;2023-05-21T09:31:07;15.40;;;13.90;;
62880;SDS011;48969;49.934;8.596;2023-05-21T09:33:32;14.80;;;13.32;;
62880;SDS011;48969;49.934;8.596;2023-05-21T09:35:57;15.40;;;13.88;;
62880;SDS011;48969;49.934;8.596;2023-05-21T09:38:23;15.17;;;13.57;;
62880;SDS011;48969;49.934;8.596;2023-05-21T09:40:48;15.00;;;13.50;;
62880;SDS011;48969;49.934;8.596;2023-05-21T09:43:14;14.27;;;12.95;;
62880;SDS011;48969;49.934;8.596;2023-05-21T09:45:52;14.63;;;13.13;;
62880;SDS011;48969;49.934;8.596;2023-05-21T09:48:31;14.32;;;12.88;;
62880;SDS011;48969;49.934;8.596;2023-05-21T09:51:05;15.75;;;14.05;;
62880;SDS011;48969;49.934;8.596;2023-05-21T09:53:31;14.63;;;13.23;;
62880;SDS011;48969;49.934;8.596;2023-05-21T09:55:56;14.45;;;13.05;;
62880;SDS011;48969;49.934;8.596;2023-05-21T09:58:21;20.83;;;14.85;;
62880;SDS011;48969;49.934;8.596;2023-05-21T10:00:46;15.53;;;13.93;;
62880;SDS011;48969;49.934;8.596;2023-05-21T10:03:12;14.40;;;12.93;;
62880;SDS011;48969;49.934;8.596;2023-05-21T10:05:38;12.95;;;11.65;;
62880;SDS011;48969;49.934;8.596;2023-05-21T10:08:05;19.17;;;13.40;;
62880;SDS011;48969;49.934;8.596;2023-05-21T10:10:31;15.30;;;12.50;;
62880;SDS011;48969;49.934;8.596;2023-05-21T10:12:57;20.77;;;12.13;;
62880;SDS011;48969;49.934;8.596;2023-05-21T10:15:23;13.98;;;11.68;;
62880;SDS011;48969;49.934;8.596;2023-05-21T10:17:49;12.20;;;11.00;;
62880;SDS011;48969;49.934;8.596;2023-05-21T10:20:16;15.57;;;12.10;;
62880;SDS011;48969;49.934;8.596;2023-05-21T10:22:41;13.68;;;12.27;;
62880;SDS011;48969;49.934;8.596;2023-05-21T10:25:08;13.55;;;12.25;;
62880;SDS011;48969;49.934;8.596;2023-05-21T10:27:34;13.30;;;11.95;;
62880;SDS011;48969;49.934;8.596;2023-05-21T10:29:59;11.38;;;10.23;;
62880;SDS011;48969;49.934;8.596;2023-05-21T10:32:25;11.70;;;10.60;;
62880;SDS011;48969;49.934;8.596;2023-05-21T10:34:52;10.77;;;9.52;;
62880;SDS011;48969;49.934;8.596;2023-05-21T10:37:17;10.75;;;9.65;;
62880;SDS011;48969;49.934;8.596;2023-05-21T10:39:42;11.32;;;10.23;;
62880;SDS011;48969;49.934;8.596;2023-05-21T10:45:04;10.77;;;9.48;;
62880;SDS011;48969;49.934;8.596;2023-05-21T10:47:39;10.02;;;9.02;;
62880;SDS011;48969;49.934;8.596;2023-05-21T10:50:16;12.30;;;11.10;;
62880;SDS011;48969;49.934;8.596;2023-05-21T10:52:51;13.02;;;9.73;;
62880;SDS011;48969;49.934;8.596;2023-05-21T10:55:24;11.00;;;9.90;;
62880;SDS011;48969;49.934;8.596;2023-05-21T10:57:57;12.00;;;10.73;;
62880;SDS011;48969;49.934;8.596;2023-05-21T11:00:26;11.18;;;9.95;;
62880;SDS011;48969;49.934;8.596;2023-05-21T11:02:52;10.73;;;9.73;;
62880;SDS011;48969;49.934;8.596;2023-05-21T11:08:01;10.82;;;9.82;;
62880;SDS011;48969;49.934;8.596;2023-05-21T11:10:30;10.55;;;9.55;;
62880;SDS011;48969;49.934;8.596;2023-05-21T11:13:09;11.15;;;10.05;;
62880;SDS011;48969;49.934;8.596;2023-05-21T11:21:03;11.63;;;10.52;;
62880;SDS011;48969;49.934;8.596;2023-05-21T11:26:14;10.50;;;9.48;;
62880;SDS011;48969;49.934;8.596;2023-05-21T11:28:39;11.95;;;10.65;;
62880;SDS011;48969;49.934;8.596;2023-05-21T11:31:21;11.50;;;10.48;;
62880;SDS011;48969;49.934;8.596;2023-05-21T11:33:46;12.43;;;11.02;;
62880;SDS011;48969;49.934;8.596;2023-05-21T11:36:11;11.43;;;10.32;;
62880;SDS011;48969;49.934;8.596;2023-05-21T11:38:37;11.02;;;10.00;;
62880;SDS011;48969;49.934;8.596;2023-05-21T11:41:02;13.27;;;11.40;;
62880;SDS011;48969;49.934;8.596;2023-05-21T11:43:28;11.82;;;10.63;;
62880;SDS011;48969;49.934;8.596;2023-05-21T11:45:53;11.63;;;10.40;;
62880;SDS011;48969;49.934;8.596;2023-05-21T11:48:19;11.85;;;10.75;;
62880;SDS011;48969;49.934;8.596;2023-05-21T11:50:45;11.43;;;10.32;;
62880;SDS011;48969;49.934;8.596;2023-05-21T11:53:10;15.55;;;10.68;;
62880;SDS011;48969;49.934;8.596;2023-05-21T11:55:39;10.77;;;9.77;;
62880;SDS011;48969;49.934;8.596;2023-05-21T11:58:07;13.85;;;10.68;;
62880;SDS011;48969;49.934;8.596;2023-05-21T12:00:39;11.30;;;10.25;;
62880;SDS011;48969;49.934;8.596;2023-05-21T12:03:04;11.63;;;10.43;;
62880;SDS011;48969;49.934;8.596;2023-05-21T12:05:30;11.88;;;10.80;;
62880;SDS011;48969;49.934;8.596;2023-05-21T12:08:07;11.27;;;10.18;;
62880;SDS011;48969;49.934;8.596;2023-05-21T12:10:32;11.50;;;10.40;;
62880;SDS011;48969;49.934;8.596;2023-05-21T12:12:57;12.00;;;10.60;;
62880;SDS011;48969;49.934;8.596;2023-05-21T12:15:23;10.30;;;9.20;;
62880;SDS011;48969;49.934;8.596;2023-05-21T12:17:49;10.52;;;9.35;;
62880;SDS011;48969;49.934;8.596;2023-05-21T12:20:16;10.13;;;9.05;;
62880;SDS011;48969;49.934;8.596;2023-05-21T12:22:41;12.20;;;9.67;;
62880;SDS011;48969;49.934;8.596;2023-05-21T12:25:07;10.63;;;9.35;;
62880;SDS011;48969;49.934;8.596;2023-05-21T12:27:32;11.85;;;9.20;;
62880;SDS011;48969;49.934;8.596;2023-05-21T12:30:00;9.30;;;8.43;;
62880;SDS011;48969;49.934;8.596;2023-05-21T12:32:26;9.88;;;8.85;;
62880;SDS011;48969;49.934;8.596;2023-05-21T12:34:51;10.27;;;9.27;;
62880;SDS011;48969;49.934;8.596;2023-05-21T12:39:44;11.07;;;9.05;;
62880;SDS011;48969;49.934;8.596;2023-05-21T12:42:09;10.45;;;9.20;;
62880;SDS011;48969;49.934;8.596;2023-05-21T12:44:37;10.85;;;8.93;;
62880;SDS011;48969;49.934;8.596;2023-05-21T12:47:02;9.85;;;8.73;;
62880;SDS011;48969;49.934;8.596;2023-05-21T12:49:32;13.73;;;12.32;;
62880;SDS011;48969;49.934;8.596;2023-05-21T12:51:57;9.70;;;8.70;;
62880;SDS011;48969;49.934;8.596;2023-05-21T12:54:29;10.43;;;9.32;;
62880;SDS011;48969;49.934;8.596;2023-05-21T12:56:54;8.75;;;7.85;;
62880;SDS011;48969;49.934;8.596;2023-05-21T12:59:23;9.88;;;8.82;;
62880;SDS011;48969;49.934;8.596;2023-05-21T13:01:48;9.30;;;8.25;;
62880;SDS011;48969;49.934;8.596;2023-05-21T13:04:13;9.73;;;8.55;;
62880;SDS011;48969;49.934;8.596;2023-05-21T13:06:42;10.75;;;9.52;;
62880;SDS011;48969;49.934;8.596;2023-05-21T13:09:07;10.43;;;9.40;;
62880;SDS011;48969;49.934;8.596;2023-05-21T13:11:32;10.53;;;9.53;;
62880;SDS011;48969;49.934;8.596;2023-05-21T13:13:58;9.80;;;8.80;;
62880;SDS011;48969;49.934;8.596;2023-05-21T13:16:23;11.05;;;8.82;;
62880;SDS011;48969;49.934;8.596;2023-05-21T13:18:48;8.83;;;7.70;;
62880;SDS011;48969;49.934;8.596;2023-05-21T13:21:13;9.07;;;7.40;;
62880;SDS011;48969;49.934;8.596;2023-05-21T13:23:38;8.75;;;7.85;;
62880;SDS011;48969;49.934;8.596;2023-05-21T13:26:04;9.53;;;8.53;;
62880;SDS011;48969;49.934;8.596;2023-05-21T13:28:29;9.13;;;8.23;;
62880;SDS011;48969;49.934;8.596;2023-05-21T13:30:55;9.82;;;8.73;;
62880;SDS011;48969;49.934;8.596;2023-05-21T13:33:20;8.95;;;8.05;;
62880;SDS011;48969;49.934;8.596;2023-05-21T13:35:45;8.68;;;7.75;;
62880;SDS011;48969;49.934;8.596;2023-05-21T13:38:15;9.27;;;8.10;;
62880;SDS011;48969;49.934;8.596;2023-05-21T13:40:40;9.68;;;8.70;;
62880;SDS011;48969;49.934;8.596;2023-05-21T13:43:05;9.43;;;8.43;;
62880;SDS011;48969;49.934;8.596;2023-05-21T13:45:30;9.73;;;8.73;;
62880;SDS011;48969;49.934;8.596;2023-05-21T13:47:56;10.27;;;9.30;;
62880;SDS011;48969;49.934;8.596;2023-05-21T13:50:23;10.10;;;9.10;;
62880;SDS011;48969;49.934;8.596;2023-05-21T13:52:48;10.27;;;9.25;;
62880;SDS011;48969;49.934;8.596;2023-05-21T13:55:14;9.80;;;8.65;;
62880;SDS011;48969;49.934;8.596;2023-05-21T13:57:40;9.67;;;8.77;;
62880;SDS011;48969;49.934;8.596;2023-05-21T14:00:05;10.45;;;9.45;;
62880;SDS011;48969;49.934;8.596;2023-05-21T14:02:33;9.93;;;8.98;;
62880;SDS011;48969;49.934;8.596;2023-05-21T14:04:58;9.93;;;8.93;;
62880;SDS011;48969;49.934;8.596;2023-05-21T14:07:23;9.57;;;8.63;;
62880;SDS011;48969;49.934;8.596;2023-05-21T14:09:49;9.90;;;8.97;;
62880;SDS011;48969;49.934;8.596;2023-05-21T14:12:14;11.68;;;9.20;;
62880;SDS011;48969;49.934;8.596;2023-05-21T14:14:39;9.98;;;8.60;;
62880;SDS011;48969;49.934;8.596;2023-05-21T14:17:05;10.27;;;8.30;;
62880;SDS011;48969;49.934;8.596;2023-05-21T14:19:31;10.07;;;9.18;;
62880;SDS011;48969;49.934;8.596;2023-05-21T14:21:56;10.48;;;9.32;;
62880;SDS011;48969;49.934;8.596;2023-05-21T14:24:21;10.00;;;9.00;;
62880;SDS011;48969;49.934;8.596;2023-05-21T14:26:46;10.32;;;8.98;;
62880;SDS011;48969;49.934;8.596;2023-05-21T14:29:12;9.13;;;8.30;;
62880;SDS011;48969;49.934;8.596;2023-05-21T14:31:37;9.83;;;8.27;;
62880;SDS011;48969;49.934;8.596;2023-05-21T14:34:02;9.82;;;8.82;;
62880;SDS011;48969;49.934;8.596;2023-05-21T14:36:27;9.90;;;8.57;;
62880;SDS011;48969;49.934;8.596;2023-05-21T14:38:53;9.20;;;8.15;;